sensor_id;sensor_type;location;lat;lon;timestamp;pressure;altitude;pressure_sealevel;temperature;humidity
27040;BME280;14589;51.578;7.306;2023-05-23T00:00:32;101096.97;;;16.27;86.82
27040;BME280;14589;51.578;7.306;2023-05-23T00:03:03;101087.53;;;16.30;87.00
27040;BME280;14589;51.578;7.306;2023-05-23T00:05:33;101089.09;;;16.24;86.99
27040;BME280;14589;51.578;7.306;2023-05-23T00:08:07;101084.84;;;16.22;87.11
27040;BME280;14589;51.578;7.306;2023-05-23T00:10:38;101092.03;;;16.23;87.15
27040;BME280;14589;51.578;7.306;2023-05-23T00:13:08;101100.94;;;16.16;87.54
27040;BME280;14589;51.578;7.306;2023-05-23T00:15:39;101101.75;;;16.17;87.72
27040;BME280;14589;51.578;7.306;2023-05-23T00:18:10;101107.06;;;16.18;87.77
27040;BME280;14589;51.578;7.306;2023-05-23T00:20:41;101105.19;;;16.19;87.52
27040;BME280;14589;51.578;7.306;2023-05-23T00:23:12;101104.03;;;16.05;87.92
27040;BME280;14589;51.578;7.306;2023-05-23T00:25:48;101105.19;;;16.11;88.05
27040;BME280;14589;51.578;7.306;2023-05-23T00:28:21;101111.03;;;16.08;87.60
27040;BME280;14589;51.578;7.306;2023-05-23T00:30:52;101118.56;;;16.14;87.65
27040;BME280;14589;51.578;7.306;2023-05-23T00:33:22;101115.31;;;16.10;87.81
27040;BME280;14589;51.578;7.306;2023-05-23T00:35:52;101115.34;;;16.02;87.47
27040;BME280;14589;51.578;7.306;2023-05-23T00:38:23;101117.91;;;15.88;86.83
27040;BME280;14589;51.578;7.306;2023-05-23T00:40:53;101132.59;;;15.95;86.69
27040;BME280;14589;51.578;7.306;2023-05-23T00:43:24;101126.50;;;15.85;85.56
27040;BME280;14589;51.578;7.306;2023-05-23T00:45:54;101126.69;;;15.67;85.26
27040;BME280;14589;51.578;7.306;2023-05-23T00:48:25;101124.81;;;15.59;84.79
27040;BME280;14589;51.578;7.306;2023-05-23T00:50:56;101131.28;;;15.58;84.14
27040;BME280;14589;51.578;7.306;2023-05-23T00:53:26;101137.13;;;15.55;84.41
27040;BME280;14589;51.578;7.306;2023-05-23T00:55:57;101139.31;;;15.60;84.45
27040;BME280;14589;51.578;7.306;2023-05-23T00:58:27;101135.41;;;15.54;83.40
27040;BME280;14589;51.578;7.306;2023-05-23T01:00:58;101134.38;;;15.55;83.98
27040;BME280;14589;51.578;7.306;2023-05-23T01:03:29;101144.06;;;15.42;83.57
27040;BME280;14589;51.578;7.306;2023-05-23T01:05:59;101141.16;;;15.35;84.04
27040;BME280;14589;51.578;7.306;2023-05-23T01:08:30;101137.56;;;15.51;84.28
27040;BME280;14589;51.578;7.306;2023-05-23T01:11:05;101144.56;;;15.37;83.55
27040;BME280;14589;51.578;7.306;2023-05-23T01:13:47;101143.88;;;15.43;84.02
27040;BME280;14589;51.578;7.306;2023-05-23T01:16:42;101146.44;;;15.45;84.19
27040;BME280;14589;51.578;7.306;2023-05-23T01:22:11;101144.06;;;15.50;83.92
27040;BME280;14589;51.578;7.306;2023-05-23T01:24:56;101153.31;;;15.49;83.19
27040;BME280;14589;51.578;7.306;2023-05-23T01:27:59;101140.50;;;15.57;83.54
27040;BME280;14589;51.578;7.306;2023-05-23T01:30:34;101125.31;;;15.55;83.36
27040;BME280;14589;51.578;7.306;2023-05-23T01:33:07;101143.41;;;15.56;83.60
27040;BME280;14589;51.578;7.306;2023-05-23T01:35:37;101133.00;;;15.59;83.02
27040;BME280;14589;51.578;7.306;2023-05-23T01:38:08;101132.31;;;15.57;83.57
27040;BME280;14589;51.578;7.306;2023-05-23T01:40:39;101139.50;;;15.66;83.52
27040;BME280;14589;51.578;7.306;2023-05-23T01:43:09;101147.34;;;15.69;83.28
27040;BME280;14589;51.578;7.306;2023-05-23T01:45:40;101137.25;;;15.62;83.66
27040;BME280;14589;51.578;7.306;2023-05-23T01:48:11;101145.47;;;15.54;83.62
27040;BME280;14589;51.578;7.306;2023-05-23T01:50:43;101144.97;;;15.58;84.05
27040;BME280;14589;51.578;7.306;2023-05-23T01:53:20;101142.06;;;15.60;84.53
27040;BME280;14589;51.578;7.306;2023-05-23T01:55:51;101150.25;;;15.60;83.97
27040;BME280;14589;51.578;7.306;2023-05-23T01:58:25;101138.97;;;15.63;84.30
27040;BME280;14589;51.578;7.306;2023-05-23T02:00:55;101142.03;;;15.68;84.09
27040;BME280;14589;51.578;7.306;2023-05-23T02:03:26;101147.69;;;15.66;83.76
27040;BME280;14589;51.578;7.306;2023-05-23T02:05:57;101145.28;;;15.63;84.01
27040;BME280;14589;51.578;7.306;2023-05-23T02:08:30;101151.28;;;15.67;84.05
27040;BME280;14589;51.578;7.306;2023-05-23T02:11:06;101150.94;;;15.70;84.33
27040;BME280;14589;51.578;7.306;2023-05-23T02:13:38;101138.97;;;15.63;84.35
27040;BME280;14589;51.578;7.306;2023-05-23T02:16:08;101143.41;;;15.72;84.42
27040;BME280;14589;51.578;7.306;2023-05-23T02:18:39;101155.72;;;15.76;84.54
27040;BME280;14589;51.578;7.306;2023-05-23T02:21:09;101155.38;;;15.79;84.68
27040;BME280;14589;51.578;7.306;2023-05-23T02:23:41;101149.38;;;15.75;84.65
27040;BME280;14589;51.578;7.306;2023-05-23T02:26:12;101158.44;;;15.76;84.64
27040;BME280;14589;51.578;7.306;2023-05-23T02:28:42;101158.44;;;15.76;84.82
27040;BME280;14589;51.578;7.306;2023-05-23T02:31:13;101154.84;;;15.75;84.92
27040;BME280;14589;51.578;7.306;2023-05-23T02:33:43;101155.38;;;15.71;84.98
27040;BME280;14589;51.578;7.306;2023-05-23T02:36:13;101152.31;;;15.66;84.94
27040;BME280;14589;51.578;7.306;2023-05-23T02:38:44;101165.28;;;15.72;85.23
27040;BME280;14589;51.578;7.306;2023-05-23T02:41:14;101155.72;;;15.68;84.95
27040;BME280;14589;51.578;7.306;2023-05-23T02:43:48;101169.06;;;15.71;85.26
27040;BME280;14589;51.578;7.306;2023-05-23T02:46:20;101175.38;;;15.71;85.00
27040;BME280;14589;51.578;7.306;2023-05-23T02:48:51;101177.09;;;15.72;85.38
27040;BME280;14589;51.578;7.306;2023-05-23T02:51:22;101166.66;;;15.68;85.54
27040;BME280;14589;51.578;7.306;2023-05-23T02:53:52;101180.50;;;15.74;84.98
27040;BME280;14589;51.578;7.306;2023-05-23T02:56:24;101177.09;;;15.72;85.27
27040;BME280;14589;51.578;7.306;2023-05-23T02:58:56;101182.38;;;15.66;85.07
27040;BME280;14589;51.578;7.306;2023-05-23T03:01:26;101173.59;;;15.38;86.42
27040;BME280;14589;51.578;7.306;2023-05-23T03:03:56;101176.84;;;15.50;86.22
27040;BME280;14589;51.578;7.306;2023-05-23T03:06:27;101182.16;;;15.51;86.62
27040;BME280;14589;51.578;7.306;2023-05-23T03:08:58;101173.81;;;15.36;86.56
27040;BME280;14589;51.578;7.306;2023-05-23T03:11:28;101184.19;;;15.33;86.68
27040;BME280;14589;51.578;7.306;2023-05-23T03:13:59;101182.69;;;15.30;86.70
27040;BME280;14589;51.578;7.306;2023-05-23T03:16:29;101195.28;;;15.31;86.73
27040;BME280;14589;51.578;7.306;2023-05-23T03:18:59;101180.75;;;15.31;86.62
27040;BME280;14589;51.578;7.306;2023-05-23T03:21:31;101180.75;;;15.31;86.79
27040;BME280;14589;51.578;7.306;2023-05-23T03:24:02;101189.31;;;15.28;86.69
27040;BME280;14589;51.578;7.306;2023-05-23T03:26:33;101193.59;;;15.30;86.84
27040;BME280;14589;51.578;7.306;2023-05-23T03:29:04;101199.56;;;15.34;86.83
27040;BME280;14589;51.578;7.306;2023-05-23T03:31:35;101197.16;;;15.23;87.19
27040;BME280;14589;51.578;7.306;2023-05-23T03:34:06;101191.34;;;15.26;87.27
27040;BME280;14589;51.578;7.306;2023-05-23T03:36:37;101198.69;;;15.25;86.84
27040;BME280;14589;51.578;7.306;2023-05-23T03:39:09;101213.22;;;15.26;87.04
27040;BME280;14589;51.578;7.306;2023-05-23T03:41:39;101205.84;;;15.10;87.60
27040;BME280;14589;51.578;7.306;2023-05-23T03:44:09;101203.97;;;15.11;86.89
27040;BME280;14589;51.578;7.306;2023-05-23T03:46:40;101209.44;;;15.11;86.94
27040;BME280;14589;51.578;7.306;2023-05-23T03:49:11;101207.03;;;15.16;86.83
27040;BME280;14589;51.578;7.306;2023-05-23T03:51:41;101214.19;;;15.09;87.07
27040;BME280;14589;51.578;7.306;2023-05-23T03:54:12;101226.13;;;15.08;87.38
27040;BME280;14589;51.578;7.306;2023-05-23T03:56:42;101224.56;;;14.97;87.49
27040;BME280;14589;51.578;7.306;2023-05-23T03:59:13;101219.44;;;14.94;87.22
27040;BME280;14589;51.578;7.306;2023-05-23T04:01:44;101235.31;;;14.90;88.65
27040;BME280;14589;51.578;7.306;2023-05-23T04:04:15;101228.97;;;14.90;89.82
27040;BME280;14589;51.578;7.306;2023-05-23T04:06:46;101227.75;;;14.84;91.17
27040;BME280;14589;51.578;7.306;2023-05-23T04:09:17;101238.31;;;14.79;91.81
27040;BME280;14589;51.578;7.306;2023-05-23T04:11:50;101234.41;;;14.82;92.02
27040;BME280;14589;51.578;7.306;2023-05-23T04:14:22;101242.44;;;14.83;92.45
27040;BME280;14589;51.578;7.306;2023-05-23T04:16:57;101245.97;;;14.76;92.06
27040;BME280;14589;51.578;7.306;2023-05-23T04:19:28;101241.72;;;14.81;91.91
27040;BME280;14589;51.578;7.306;2023-05-23T04:21:59;101244.84;;;14.86;92.83
27040;BME280;14589;51.578;7.306;2023-05-23T04:24:29;101238.31;;;14.79;91.98
27040;BME280;14589;51.578;7.306;2023-05-23T04:27:00;101236.97;;;14.83;92.47
27040;BME280;14589;51.578;7.306;2023-05-23T04:29:30;101245.16;;;14.83;91.72
27040;BME280;14589;51.578;7.306;2023-05-23T04:32:01;101256.53;;;14.71;92.25
27040;BME280;14589;51.578;7.306;2023-05-23T04:34:32;101250.56;;;14.75;91.72
27040;BME280;14589;51.578;7.306;2023-05-23T04:37:03;101252.94;;;14.70;92.01
27040;BME280;14589;51.578;7.306;2023-05-23T04:39:34;101257.69;;;14.60;92.05
27040;BME280;14589;51.578;7.306;2023-05-23T04:42:23;101246.97;;;14.67;92.17
27040;BME280;14589;51.578;7.306;2023-05-23T04:45:07;101255.38;;;14.73;90.89
27040;BME280;14589;51.578;7.306;2023-05-23T04:47:59;101233.31;;;14.67;91.93
27040;BME280;14589;51.578;7.306;2023-05-23T04:50:39;101248.06;;;14.82;91.70
27040;BME280;14589;51.578;7.306;2023-05-23T04:53:10;101253.91;;;14.87;91.18
27040;BME280;14589;51.578;7.306;2023-05-23T04:55:41;101258.31;;;14.80;91.63
27040;BME280;14589;51.578;7.306;2023-05-23T04:58:17;101261.25;;;14.86;90.35
27040;BME280;14589;51.578;7.306;2023-05-23T05:00:47;101254.00;;;14.77;90.77
27040;BME280;14589;51.578;7.306;2023-05-23T05:03:20;101262.41;;;14.84;91.09
27040;BME280;14589;51.578;7.306;2023-05-23T05:05:52;101264.81;;;14.87;91.68
27040;BME280;14589;51.578;7.306;2023-05-23T05:08:25;101260.38;;;14.86;90.86
27040;BME280;14589;51.578;7.306;2023-05-23T05:10:56;101279.03;;;14.98;90.86
27040;BME280;14589;51.578;7.306;2023-05-23T05:13:26;101277.16;;;14.99;91.01
27040;BME280;14589;51.578;7.306;2023-05-23T05:15:59;101278.34;;;14.96;90.27
27040;BME280;14589;51.578;7.306;2023-05-23T05:18:30;101293.00;;;14.95;89.82
27040;BME280;14589;51.578;7.306;2023-05-23T05:21:02;101273.22;;;14.93;89.97
27040;BME280;14589;51.578;7.306;2023-05-23T05:23:34;101282.28;;;15.02;90.00
27040;BME280;14589;51.578;7.306;2023-05-23T05:26:05;101284.47;;;14.90;89.53
27040;BME280;14589;51.578;7.306;2023-05-23T05:28:35;101284.16;;;15.02;89.80
27040;BME280;14589;51.578;7.306;2023-05-23T05:31:06;101290.53;;;15.10;89.96
27040;BME280;14589;51.578;7.306;2023-05-23T05:33:39;101296.25;;;14.91;89.38
27040;BME280;14589;51.578;7.306;2023-05-23T05:36:14;101299.91;;;14.74;90.53
27040;BME280;14589;51.578;7.306;2023-05-23T05:38:45;101309.97;;;14.73;90.73
27040;BME280;14589;51.578;7.306;2023-05-23T05:41:16;101306.53;;;14.71;90.97
27040;BME280;14589;51.578;7.306;2023-05-23T05:43:51;101312.63;;;14.65;91.72
27040;BME280;14589;51.578;7.306;2023-05-23T05:46:21;101322.41;;;14.76;91.58
27040;BME280;14589;51.578;7.306;2023-05-23T05:48:53;101316.38;;;14.64;91.24
27040;BME280;14589;51.578;7.306;2023-05-23T05:51:23;101325.50;;;14.73;91.67
27040;BME280;14589;51.578;7.306;2023-05-23T05:53:54;101326.00;;;14.76;90.66
27040;BME280;14589;51.578;7.306;2023-05-23T05:56:25;101322.81;;;14.55;90.77
27040;BME280;14589;51.578;7.306;2023-05-23T05:58:55;101328.72;;;14.68;90.41
27040;BME280;14589;51.578;7.306;2023-05-23T06:01:29;101323.97;;;14.52;90.43
27040;BME280;14589;51.578;7.306;2023-05-23T06:04:00;101330.00;;;14.56;90.41
27040;BME280;14589;51.578;7.306;2023-05-23T06:06:30;101331.69;;;14.57;90.70
27040;BME280;14589;51.578;7.306;2023-05-23T06:09:01;101326.94;;;14.59;89.72
27040;BME280;14589;51.578;7.306;2023-05-23T06:11:33;101327.47;;;14.63;90.72
27040;BME280;14589;51.578;7.306;2023-05-23T06:14:03;101329.34;;;14.62;90.13
27040;BME280;14589;51.578;7.306;2023-05-23T06:16:34;101338.22;;;14.64;90.92
27040;BME280;14589;51.578;7.306;2023-05-23T06:19:04;101319.16;;;14.72;90.82
27040;BME280;14589;51.578;7.306;2023-05-23T06:21:35;101330.53;;;14.60;91.63
27040;BME280;14589;51.578;7.306;2023-05-23T06:24:08;101344.38;;;14.66;90.66
27040;BME280;14589;51.578;7.306;2023-05-23T06:26:38;101338.56;;;14.61;90.74
27040;BME280;14589;51.578;7.306;2023-05-23T06:29:09;101341.59;;;14.58;92.00
27040;BME280;14589;51.578;7.306;2023-05-23T06:31:39;101347.84;;;14.50;91.96
27040;BME280;14589;51.578;7.306;2023-05-23T06:34:10;101353.09;;;14.44;92.11
27040;BME280;14589;51.578;7.306;2023-05-23T06:36:40;101353.56;;;14.39;91.60
27040;BME280;14589;51.578;7.306;2023-05-23T06:39:12;101360.09;;;14.29;91.54
27040;BME280;14589;51.578;7.306;2023-05-23T06:41:42;101369.94;;;14.39;91.90
27040;BME280;14589;51.578;7.306;2023-05-23T06:44:13;101363.31;;;14.42;91.63
27040;BME280;14589;51.578;7.306;2023-05-23T06:46:45;101367.28;;;14.47;91.09
27040;BME280;14589;51.578;7.306;2023-05-23T06:49:16;101364.91;;;14.52;90.83
27040;BME280;14589;51.578;7.306;2023-05-23T06:51:48;101369.59;;;14.60;89.71
27040;BME280;14589;51.578;7.306;2023-05-23T06:54:19;101375.28;;;14.67;89.62
27040;BME280;14589;51.578;7.306;2023-05-23T06:56:49;101386.69;;;14.62;89.01
27040;BME280;14589;51.578;7.306;2023-05-23T06:59:20;101374.31;;;14.50;89.01
27040;BME280;14589;51.578;7.306;2023-05-23T07:01:50;101378.16;;;14.65;88.08
27040;BME280;14589;51.578;7.306;2023-05-23T07:04:22;101390.78;;;14.66;87.86
27040;BME280;14589;51.578;7.306;2023-05-23T07:06:52;101389.56;;;14.61;87.68
27040;BME280;14589;51.578;7.306;2023-05-23T07:09:23;101388.22;;;14.65;86.97
27040;BME280;14589;51.578;7.306;2023-05-23T07:11:55;101403.66;;;14.74;87.11
27040;BME280;14589;51.578;7.306;2023-05-23T07:14:28;101400.00;;;14.65;85.95
27040;BME280;14589;51.578;7.306;2023-05-23T07:16:58;101396.63;;;14.71;85.47
27040;BME280;14589;51.578;7.306;2023-05-23T07:19:30;101408.81;;;14.59;85.77
27040;BME280;14589;51.578;7.306;2023-05-23T07:22:01;101404.72;;;14.55;85.60
27040;BME280;14589;51.578;7.306;2023-05-23T07:24:32;101397.91;;;14.59;84.88
27040;BME280;14589;51.578;7.306;2023-05-23T07:27:03;101407.09;;;14.58;85.01
27040;BME280;14589;51.578;7.306;2023-05-23T07:29:34;101414.13;;;14.61;84.93
27040;BME280;14589;51.578;7.306;2023-05-23T07:32:06;101423.84;;;14.63;83.65
27040;BME280;14589;51.578;7.306;2023-05-23T07:34:36;101417.00;;;14.59;84.14
27040;BME280;14589;51.578;7.306;2023-05-23T07:37:07;101413.50;;;14.67;83.94
27040;BME280;14589;51.578;7.306;2023-05-23T07:39:43;101428.53;;;14.71;83.82
27040;BME280;14589;51.578;7.306;2023-05-23T07:42:13;101435.00;;;14.70;84.39
27040;BME280;14589;51.578;7.306;2023-05-23T07:44:44;101431.81;;;14.74;84.46
27040;BME280;14589;51.578;7.306;2023-05-23T07:47:14;101431.81;;;14.74;84.56
27040;BME280;14589;51.578;7.306;2023-05-23T07:49:45;101434.97;;;14.87;84.43
27040;BME280;14589;51.578;7.306;2023-05-23T07:52:17;101441.47;;;14.86;83.63
27040;BME280;14589;51.578;7.306;2023-05-23T07:54:48;101449.25;;;14.81;83.52
27040;BME280;14589;51.578;7.306;2023-05-23T07:57:21;101446.81;;;14.96;83.21
27040;BME280;14589;51.578;7.306;2023-05-23T07:59:55;101443.38;;;14.94;83.29
27040;BME280;14589;51.578;7.306;2023-05-23T08:02:25;101444.94;;;14.96;82.78
27040;BME280;14589;51.578;7.306;2023-05-23T08:04:55;101456.81;;;15.05;82.82
27040;BME280;14589;51.578;7.306;2023-05-23T08:07:26;101443.03;;;15.15;82.28
27040;BME280;14589;51.578;7.306;2023-05-23T08:10:00;101452.34;;;15.04;82.75
27040;BME280;14589;51.578;7.306;2023-05-23T08:12:34;101452.84;;;15.00;82.88
27040;BME280;14589;51.578;7.306;2023-05-23T08:15:12;101458.03;;;15.11;82.79
27040;BME280;14589;51.578;7.306;2023-05-23T08:17:52;101457.66;;;15.06;82.49
27040;BME280;14589;51.578;7.306;2023-05-23T08:20:26;101458.72;;;15.13;81.60
27040;BME280;14589;51.578;7.306;2023-05-23T08:23:06;101467.56;;;15.07;81.19
27040;BME280;14589;51.578;7.306;2023-05-23T08:25:36;101472.34;;;15.05;81.78
27040;BME280;14589;51.578;7.306;2023-05-23T08:28:08;101459.28;;;15.16;81.21
27040;BME280;14589;51.578;7.306;2023-05-23T08:30:54;101471.69;;;15.11;79.91
27040;BME280;14589;51.578;7.306;2023-05-23T08:33:26;101465.09;;;15.21;79.71
27040;BME280;14589;51.578;7.306;2023-05-23T08:36:10;101472.38;;;15.13;80.25
27040;BME280;14589;51.578;7.306;2023-05-23T08:38:49;101480.91;;;15.10;81.06
27040;BME280;14589;51.578;7.306;2023-05-23T08:41:38;101483.91;;;14.98;81.98
27040;BME280;14589;51.578;7.306;2023-05-23T08:44:16;101485.31;;;14.85;82.02
27040;BME280;14589;51.578;7.306;2023-05-23T08:46:53;101487.50;;;14.81;83.71
27040;BME280;14589;51.578;7.306;2023-05-23T08:50:04;101493.28;;;14.78;83.63
27040;BME280;14589;51.578;7.306;2023-05-23T08:52:36;101500.06;;;14.92;83.69
27040;BME280;14589;51.578;7.306;2023-05-23T08:55:12;101509.97;;;14.75;83.95
27040;BME280;14589;51.578;7.306;2023-05-23T08:57:44;101517.91;;;14.51;84.13
27040;BME280;14589;51.578;7.306;2023-05-23T09:00:30;101517.09;;;14.68;84.49
27040;BME280;14589;51.578;7.306;2023-05-23T09:03:02;101524.03;;;14.63;84.41
27040;BME280;14589;51.578;7.306;2023-05-23T09:06:09;101518.72;;;14.61;82.29
27040;BME280;14589;51.578;7.306;2023-05-23T09:08:40;101525.56;;;14.65;83.35
27040;BME280;14589;51.578;7.306;2023-05-23T09:11:11;101523.09;;;14.54;83.81
27040;BME280;14589;51.578;7.306;2023-05-23T09:13:43;101526.56;;;14.46;84.67
27040;BME280;14589;51.578;7.306;2023-05-23T09:16:17;101526.63;;;14.37;83.56
27040;BME280;14589;51.578;7.306;2023-05-23T09:18:52;101535.03;;;14.26;84.63
27040;BME280;14589;51.578;7.306;2023-05-23T09:21:26;101547.31;;;14.39;83.14
27040;BME280;14589;51.578;7.306;2023-05-23T09:24:09;101552.84;;;14.20;83.75
27040;BME280;14589;51.578;7.306;2023-05-23T09:26:40;101546.94;;;13.97;83.43
27040;BME280;14589;51.578;7.306;2023-05-23T09:29:11;101557.66;;;14.08;83.46
27040;BME280;14589;51.578;7.306;2023-05-23T09:31:41;101546.53;;;14.19;83.61
27040;BME280;14589;51.578;7.306;2023-05-23T09:34:12;101557.06;;;14.42;82.75
27040;BME280;14589;51.578;7.306;2023-05-23T09:36:45;101540.31;;;14.54;81.70
27040;BME280;14589;51.578;7.306;2023-05-23T09:39:15;101555.84;;;14.54;81.01
27040;BME280;14589;51.578;7.306;2023-05-23T09:41:47;101555.31;;;14.68;80.31
27040;BME280;14589;51.578;7.306;2023-05-23T09:44:22;101553.88;;;14.64;80.69
27040;BME280;14589;51.578;7.306;2023-05-23T09:46:53;101558.81;;;14.61;79.90
27040;BME280;14589;51.578;7.306;2023-05-23T09:49:25;101562.41;;;14.61;80.39
27040;BME280;14589;51.578;7.306;2023-05-23T09:51:59;101568.72;;;14.62;79.84
27040;BME280;14589;51.578;7.306;2023-05-23T09:54:30;101554.75;;;14.65;81.08
27040;BME280;14589;51.578;7.306;2023-05-23T09:57:01;101558.44;;;14.73;78.92
27040;BME280;14589;51.578;7.306;2023-05-23T09:59:32;101571.66;;;14.50;80.34
27040;BME280;14589;51.578;7.306;2023-05-23T10:02:06;101581.56;;;14.69;79.93
27040;BME280;14589;51.578;7.306;2023-05-23T10:04:38;101578.19;;;14.03;81.63
27040;BME280;14589;51.578;7.306;2023-05-23T10:07:13;101565.81;;;14.08;81.89
27040;BME280;14589;51.578;7.306;2023-05-23T10:09:55;101587.19;;;13.86;80.86
27040;BME280;14589;51.578;7.306;2023-05-23T10:12:46;101558.44;;;14.01;81.21
27040;BME280;14589;51.578;7.306;2023-05-23T10:15:20;101575.28;;;14.14;79.60
27040;BME280;14589;51.578;7.306;2023-05-23T10:18:09;101575.81;;;13.90;78.01
27040;BME280;14589;51.578;7.306;2023-05-23T10:20:42;101583.25;;;13.98;79.14
27040;BME280;14589;51.578;7.306;2023-05-23T10:23:19;101576.97;;;14.25;77.76
27040;BME280;14589;51.578;7.306;2023-05-23T10:25:50;101583.75;;;14.48;77.04
27040;BME280;14589;51.578;7.306;2023-05-23T10:28:24;101581.78;;;14.40;75.75
27040;BME280;14589;51.578;7.306;2023-05-23T10:30:56;101586.97;;;14.61;75.33
27040;BME280;14589;51.578;7.306;2023-05-23T10:33:30;101570.59;;;14.61;76.37
27040;BME280;14589;51.578;7.306;2023-05-23T10:38:47;101575.44;;;14.67;74.32
27040;BME280;14589;51.578;7.306;2023-05-23T10:41:38;101584.56;;;15.29;74.42
27040;BME280;14589;51.578;7.306;2023-05-23T10:44:18;101580.44;;;16.02;71.69
27040;BME280;14589;51.578;7.306;2023-05-23T10:46:53;101576.47;;;16.31;69.04
27040;BME280;14589;51.578;7.306;2023-05-23T10:49:48;101585.03;;;16.28;68.38
27040;BME280;14589;51.578;7.306;2023-05-23T10:52:22;101575.19;;;16.09;68.47
27040;BME280;14589;51.578;7.306;2023-05-23T10:54:55;101585.44;;;16.07;67.55
27040;BME280;14589;51.578;7.306;2023-05-23T10:57:26;101585.22;;;16.00;68.41
27040;BME280;14589;51.578;7.306;2023-05-23T10:59:59;101588.63;;;15.68;69.00
27040;BME280;14589;51.578;7.306;2023-05-23T11:02:31;101591.34;;;15.94;69.89
27040;BME280;14589;51.578;7.306;2023-05-23T11:05:21;101596.56;;;16.13;69.47
27040;BME280;14589;51.578;7.306;2023-05-23T11:08:11;101589.53;;;16.03;68.01
27040;BME280;14589;51.578;7.306;2023-05-23T11:11:00;101602.56;;;16.17;67.60
27040;BME280;14589;51.578;7.306;2023-05-23T11:13:54;101600.53;;;16.19;67.06
27040;BME280;14589;51.578;7.306;2023-05-23T11:22:00;101598.94;;;16.08;66.42
27040;BME280;14589;51.578;7.306;2023-05-23T11:24:49;101604.19;;;16.28;65.80
27040;BME280;14589;51.578;7.306;2023-05-23T11:27:39;101606.34;;;16.16;65.68
27040;BME280;14589;51.578;7.306;2023-05-23T11:30:17;101607.03;;;15.84;66.50
27040;BME280;14589;51.578;7.306;2023-05-23T11:32:52;101617.94;;;16.10;65.63
27040;BME280;14589;51.578;7.306;2023-05-23T11:35:25;101614.63;;;15.72;65.79
27040;BME280;14589;51.578;7.306;2023-05-23T11:37:57;101617.09;;;15.84;67.23
27040;BME280;14589;51.578;7.306;2023-05-23T11:40:32;101623.16;;;15.69;66.65
27040;BME280;14589;51.578;7.306;2023-05-23T11:43:08;101615.28;;;15.92;66.93
27040;BME280;14589;51.578;7.306;2023-05-23T11:45:39;101615.56;;;16.15;66.65
27040;BME280;14589;51.578;7.306;2023-05-23T11:48:13;101615.84;;;16.38;64.33
27040;BME280;14589;51.578;7.306;2023-05-23T11:50:51;101614.47;;;16.34;62.36
27040;BME280;14589;51.578;7.306;2023-05-23T11:53:22;101617.56;;;16.05;62.35
27040;BME280;14589;51.578;7.306;2023-05-23T11:55:55;101617.97;;;16.52;62.50
27040;BME280;14589;51.578;7.306;2023-05-23T11:58:37;101603.88;;;16.89;61.36
27040;BME280;14589;51.578;7.306;2023-05-23T12:01:10;101616.00;;;16.70;60.31
27040;BME280;14589;51.578;7.306;2023-05-23T12:03:48;101630.66;;;17.19;59.83
27040;BME280;14589;51.578;7.306;2023-05-23T12:06:20;101623.63;;;17.82;58.27
27040;BME280;14589;51.578;7.306;2023-05-23T12:08:51;101623.00;;;18.74;54.05
27040;BME280;14589;51.578;7.306;2023-05-23T12:11:22;101615.22;;;18.77;51.70
27040;BME280;14589;51.578;7.306;2023-05-23T12:13:54;101628.59;;;18.88;53.35
27040;BME280;14589;51.578;7.306;2023-05-23T12:16:35;101616.50;;;19.43;49.57
27040;BME280;14589;51.578;7.306;2023-05-23T12:19:05;101620.03;;;19.74;48.88
27040;BME280;14589;51.578;7.306;2023-05-23T12:21:40;101631.81;;;19.83;45.77
27040;BME280;14589;51.578;7.306;2023-05-23T12:24:21;101642.56;;;19.93;44.85
27040;BME280;14589;51.578;7.306;2023-05-23T12:26:54;101624.47;;;19.61;44.92
27040;BME280;14589;51.578;7.306;2023-05-23T12:29:32;101624.59;;;20.85;42.79
27040;BME280;14589;51.578;7.306;2023-05-23T12:32:05;101620.66;;;20.94;40.29
27040;BME280;14589;51.578;7.306;2023-05-23T12:34:40;101622.53;;;21.29;40.07
27040;BME280;14589;51.578;7.306;2023-05-23T12:37:12;101602.31;;;21.44;38.33
27040;BME280;14589;51.578;7.306;2023-05-23T12:39:43;101614.41;;;20.85;39.07
27040;BME280;14589;51.578;7.306;2023-05-23T12:42:14;101608.47;;;21.03;38.75
27040;BME280;14589;51.578;7.306;2023-05-23T12:44:45;101619.22;;;20.98;40.21
27040;BME280;14589;51.578;7.306;2023-05-23T12:47:17;101608.94;;;20.27;40.38
27040;BME280;14589;51.578;7.306;2023-05-23T12:49:48;101616.97;;;20.36;40.73
27040;BME280;14589;51.578;7.306;2023-05-23T12:52:18;101611.41;;;19.92;40.25
27040;BME280;14589;51.578;7.306;2023-05-23T12:54:49;101614.09;;;20.95;39.32
27040;BME280;14589;51.578;7.306;2023-05-23T12:57:19;101609.38;;;20.74;38.41
27040;BME280;14589;51.578;7.306;2023-05-23T12:59:50;101611.31;;;20.74;37.10
27040;BME280;14589;51.578;7.306;2023-05-23T13:02:20;101610.66;;;20.93;37.42
27040;BME280;14589;51.578;7.306;2023-05-23T13:04:51;101599.75;;;20.49;38.81
27040;BME280;14589;51.578;7.306;2023-05-23T13:07:21;101611.53;;;20.28;39.55
27040;BME280;14589;51.578;7.306;2023-05-23T13:09:52;101600.97;;;20.32;40.20
27040;BME280;14589;51.578;7.306;2023-05-23T13:12:23;101607.09;;;19.60;40.14
27040;BME280;14589;51.578;7.306;2023-05-23T13:14:53;101592.34;;;19.53;40.92
27040;BME280;14589;51.578;7.306;2023-05-23T13:17:23;101603.84;;;20.38;40.44
27040;BME280;14589;51.578;7.306;2023-05-23T13:19:54;101600.84;;;20.69;39.24
27040;BME280;14589;51.578;7.306;2023-05-23T13:22:24;101592.41;;;20.27;39.45
27040;BME280;14589;51.578;7.306;2023-05-23T13:24:55;101595.13;;;20.71;39.84
27040;BME280;14589;51.578;7.306;2023-05-23T13:27:25;101602.69;;;20.98;39.73
27040;BME280;14589;51.578;7.306;2023-05-23T13:29:55;101605.56;;;20.75;38.44
27040;BME280;14589;51.578;7.306;2023-05-23T13:32:26;101610.72;;;20.99;38.92